createdAt,value
2023-03-17T00:04:31.045Z,83.9
2023-03-17T00:09:27.564Z,83.9
2023-03-17T00:14:24.112Z,85.8
2023-03-17T00:20:34.870Z,86.8
2023-03-17T00:25:31.262Z,88.2
2023-03-17T00:30:27.829Z,87.5
2023-03-17T00:36:38.649Z,86.6
2023-03-17T00:41:35.083Z,87.3
2023-03-17T00:46:31.568Z,88
2023-03-17T00:51:28.180Z,88.5
2023-03-17T00:56:24.734Z,88.4
2023-03-17T01:02:35.296Z,89.7
2023-03-17T01:07:31.816Z,88.8
2023-03-17T01:12:28.424Z,86.7
2023-03-17T01:17:24.936Z,86.8
2023-03-17T01:23:35.632Z,86.9
2023-03-17T01:28:32.098Z,87.5
2023-03-17T01:33:28.611Z,87
2023-03-17T01:38:25.182Z,88.4
2023-03-17T01:44:35.869Z,89.6
2023-03-17T01:49:32.416Z,90.3
2023-03-17T01:54:28.874Z,90.3
2023-03-17T01:59:25.422Z,90.9
2023-03-17T02:05:36.079Z,89.8
2023-03-17T02:10:32.929Z,89.7
2023-03-17T02:15:29.127Z,89
2023-03-17T02:20:25.754Z,89.1
2023-03-17T02:26:36.339Z,90.6
2023-03-17T02:31:32.890Z,92.1
2023-03-17T02:36:29.465Z,91.5
2023-03-17T02:47:36.605Z,93
2023-03-17T02:52:33.177Z,93.7
2023-03-17T02:57:29.709Z,93.7
2023-03-17T03:08:36.851Z,92.9
2023-03-17T03:13:33.389Z,93.3
2023-03-17T03:18:29.930Z,92.8
2023-03-17T03:23:26.449Z,94.8
2023-03-17T03:29:37.135Z,95.3
2023-03-17T03:34:33.726Z,93.4
2023-03-17T03:39:30.164Z,93.7
2023-03-17T03:44:26.759Z,92
2023-03-17T03:50:37.404Z,92
2023-03-17T03:55:33.924Z,91.7
2023-03-17T04:00:30.706Z,92.2
2023-03-17T04:05:26.994Z,92.5
2023-03-17T04:11:37.633Z,92.6
2023-03-17T04:16:34.247Z,93
2023-03-17T04:21:30.725Z,94
2023-03-17T04:26:27.241Z,94.8
2023-03-17T04:31:23.896Z,94.2
2023-03-17T04:37:34.775Z,96
2023-03-17T04:42:30.957Z,96.3
2023-03-17T04:47:27.513Z,95.4
2023-03-17T04:52:24.080Z,95.1
2023-03-17T04:58:34.712Z,95.6
2023-03-17T05:03:31.225Z,95.5
2023-03-17T05:08:27.774Z,94.9
2023-03-17T05:13:24.306Z,96.1
2023-03-17T05:19:35.008Z,96.1
2023-03-17T05:24:31.467Z,95.3
2023-03-17T05:29:28.111Z,95.3
2023-03-17T05:34:24.656Z,94.5
2023-03-17T05:40:35.294Z,93.1
2023-03-17T05:45:31.757Z,92.9
2023-03-17T05:50:28.421Z,92.1
2023-03-17T05:55:24.840Z,91.2
2023-03-17T06:01:35.478Z,90.2
2023-03-17T06:06:32.005Z,90.4
2023-03-17T06:11:28.643Z,90.7
2023-03-17T06:16:25.133Z,90
2023-03-17T06:22:35.776Z,88.8
2023-03-17T06:27:32.404Z,87.3
2023-03-17T06:32:28.893Z,85
2023-03-17T06:37:25.379Z,83.5
2023-03-17T06:43:36.008Z,80.9
2023-03-17T06:48:32.607Z,80.5
2023-03-17T06:53:29.089Z,79.3
2023-03-17T06:58:25.721Z,77
2023-03-17T07:04:36.288Z,76.3
2023-03-17T07:09:32.834Z,74.2
2023-03-17T07:14:29.331Z,73.9
2023-03-17T07:19:25.872Z,72.1
2023-03-17T07:25:36.520Z,71.9
2023-03-17T07:30:33.073Z,69.7
2023-03-17T07:35:30.038Z,69.9
2023-03-17T07:40:26.146Z,69.4
2023-03-17T07:46:36.791Z,68.8
2023-03-17T07:51:33.425Z,66.8
2023-03-17T07:56:29.841Z,66.2
2023-03-17T08:01:26.443Z,65.4
2023-03-17T08:07:37.125Z,65.4
2023-03-17T08:12:33.676Z,63.5
2023-03-17T08:17:30.099Z,63.3
2023-03-17T08:22:26.715Z,63.3
2023-03-17T08:28:37.343Z,62.5
2023-03-17T08:33:33.917Z,62
2023-03-17T08:38:30.380Z,61.8
2023-03-17T08:43:26.918Z,59.2
2023-03-17T08:49:37.600Z,58.1
2023-03-17T08:54:34.209Z,59.1
2023-03-17T08:59:30.634Z,58
2023-03-17T09:04:27.185Z,56.5
2023-03-17T09:09:23.864Z,54.5
2023-03-17T09:15:34.547Z,54.7
2023-03-17T09:20:31.169Z,54.2
2023-03-17T09:25:27.427Z,53.9
2023-03-17T09:31:38.252Z,53
2023-03-17T09:36:34.719Z,53.1
2023-03-17T09:41:31.149Z,51.2
2023-03-17T09:45:13.671Z,52.7
2023-03-17T09:46:27.771Z,51.9
2023-03-17T09:52:38.382Z,51.7
2023-03-17T09:57:34.966Z,50.9
2023-03-17T10:02:31.521Z,51.4
2023-03-17T10:07:27.979Z,50.7
2023-03-17T10:12:24.509Z,49.9
2023-03-17T10:18:35.191Z,49.7
2023-03-17T10:28:28.328Z,49.6
2023-03-17T10:33:24.801Z,50
2023-03-17T10:39:35.518Z,49.1
2023-03-17T10:44:32.010Z,49.5
2023-03-17T10:49:28.482Z,48.5
2023-03-17T10:54:25.014Z,48.6
2023-03-17T11:00:35.747Z,48.7
2023-03-17T11:05:32.244Z,48.1
2023-03-17T11:10:29.332Z,48.5
2023-03-17T11:15:25.308Z,47
2023-03-17T11:21:35.954Z,46.1
2023-03-17T11:26:32.553Z,47.6
2023-03-17T11:31:29.144Z,47.5
2023-03-17T11:36:25.567Z,47.4
2023-03-17T11:42:36.227Z,48
2023-03-17T11:47:32.793Z,47
2023-03-17T11:52:29.342Z,45.9
2023-03-17T11:57:25.805Z,45.6
2023-03-17T12:03:36.520Z,45
2023-03-17T12:08:33.013Z,44.9
2023-03-17T12:13:29.578Z,45
2023-03-17T12:18:26.095Z,46
2023-03-17T12:24:36.743Z,44.6
2023-03-17T12:29:33.372Z,44.3
2023-03-17T12:34:29.799Z,44.6
2023-03-17T12:39:26.363Z,44.4
2023-03-17T12:45:37.023Z,42.7
2023-03-17T12:50:33.610Z,44.3
2023-03-17T12:55:30.413Z,44.5
2023-03-17T13:00:26.612Z,41.8
2023-03-17T13:06:37.263Z,41.3
2023-03-17T13:11:33.872Z,40.4
2023-03-17T13:16:30.399Z,40.3
2023-03-17T13:21:26.884Z,38.6
2023-03-17T13:27:37.551Z,38
2023-03-17T13:32:34.221Z,40.3
2023-03-17T13:37:30.586Z,41.3
2023-03-17T13:42:27.132Z,41.3
2023-03-17T13:48:37.979Z,39.9
2023-03-17T13:53:34.412Z,38.5
2023-03-17T13:58:30.853Z,37.2
2023-03-17T14:03:27.508Z,39
2023-03-17T14:09:38.106Z,37.6
2023-03-17T14:14:34.588Z,40.6
2023-03-17T14:19:31.149Z,42.8
2023-03-17T14:24:27.674Z,43.8
2023-03-17T14:29:24.205Z,44.8
2023-03-17T14:35:35.305Z,45.8
2023-03-17T14:40:31.389Z,45.5
2023-03-17T14:45:27.941Z,47.5
2023-03-17T14:50:24.548Z,47.6
2023-03-17T14:56:35.247Z,48.3
2023-03-17T15:06:28.201Z,51
2023-03-17T15:11:24.806Z,49.8
2023-03-17T15:17:35.467Z,51.2
2023-03-17T15:22:31.921Z,51.6
2023-03-17T15:27:28.469Z,51.4
2023-03-17T15:38:35.731Z,52.3
2023-03-17T15:43:32.188Z,52.2
2023-03-17T15:48:28.714Z,53
2023-03-17T15:53:25.365Z,52.9
2023-03-17T15:59:35.972Z,53.8
2023-03-17T16:04:32.583Z,53.7
2023-03-17T16:09:29.050Z,54.4
2023-03-17T16:14:25.639Z,55.5
2023-03-17T16:20:36.272Z,55.2
2023-03-17T16:25:32.709Z,56.1
2023-03-17T16:30:29.891Z,57.1
2023-03-17T16:35:25.852Z,56.4
2023-03-17T16:41:36.525Z,57.7
2023-03-17T16:46:34.828Z,58.3
2023-03-17T16:51:29.630Z,59.4
2023-03-17T16:56:26.119Z,58.8
2023-03-17T17:02:36.826Z,59.4
2023-03-17T17:07:33.270Z,60
2023-03-17T17:12:29.829Z,59.7
2023-03-17T17:17:26.399Z,59.8
2023-03-17T17:23:37.082Z,59.4
2023-03-17T17:28:33.544Z,59.2
2023-03-17T17:33:30.090Z,58.8
2023-03-17T17:38:26.670Z,58.6
2023-03-17T17:44:37.309Z,59.8
2023-03-17T17:49:33.883Z,58.9
2023-03-17T17:54:30.311Z,58.8
2023-03-17T17:59:26.852Z,59.5
2023-03-17T18:05:37.524Z,60.2
2023-03-17T18:10:34.581Z,60.3
2023-03-17T18:15:30.586Z,60
2023-03-17T18:20:27.246Z,61
2023-03-17T18:26:37.774Z,62.2
2023-03-17T18:31:34.439Z,68.2
2023-03-17T18:36:30.829Z,73.7
2023-03-17T18:41:27.477Z,80.7
2023-03-17T18:47:38.051Z,92.7
2023-03-17T18:52:34.623Z,90.7
2023-03-17T18:57:31.137Z,91.4
2023-03-17T19:02:27.712Z,89.6
2023-03-17T19:07:24.219Z,88
2023-03-17T19:13:34.953Z,92
2023-03-17T19:18:31.352Z,98.3
2023-03-17T19:23:27.914Z,100
2023-03-17T19:28:24.493Z,100
2023-03-17T19:34:35.210Z,100
2023-03-17T19:39:31.631Z,100
2023-03-17T19:44:28.188Z,100
2023-03-17T19:49:24.748Z,100
2023-03-17T19:55:35.411Z,100
2023-03-17T20:00:32.226Z,100
2023-03-17T20:05:28.525Z,100
2023-03-17T20:16:36.031Z,100
2023-03-17T20:21:32.155Z,100
2023-03-17T20:26:28.761Z,100
2023-03-17T20:31:25.339Z,100
2023-03-17T20:37:36.038Z,100
2023-03-17T20:42:32.461Z,100
2023-03-17T20:47:29.016Z,100
2023-03-17T20:52:25.558Z,100
2023-03-17T20:58:36.234Z,100
2023-03-17T21:03:32.714Z,100
2023-03-17T21:08:29.236Z,100
2023-03-17T21:13:25.797Z,100
2023-03-17T21:19:36.481Z,100
2023-03-17T21:24:32.982Z,100
2023-03-17T21:29:29.592Z,100
2023-03-17T21:40:36.808Z,100
2023-03-17T21:45:33.317Z,100
2023-03-17T21:50:29.831Z,100
2023-03-17T21:55:26.378Z,100
2023-03-17T22:01:37.193Z,100
2023-03-17T22:06:33.504Z,100
2023-03-17T22:11:30.043Z,100
2023-03-17T22:16:26.636Z,100
2023-03-17T22:22:37.271Z,100
2023-03-17T22:27:33.760Z,100
2023-03-17T22:32:30.369Z,100
2023-03-17T22:37:26.941Z,100
2023-03-17T22:43:37.555Z,100
2023-03-17T22:48:34.028Z,100
2023-03-17T22:53:30.552Z,100
2023-03-17T22:58:27.101Z,100
2023-03-17T23:04:37.895Z,100
2023-03-17T23:09:34.349Z,100
2023-03-17T23:14:30.843Z,100
2023-03-17T23:19:27.430Z,100
2023-03-17T23:25:38.119Z,100
2023-03-17T23:30:35.176Z,100
2023-03-17T23:35:31.130Z,100
2023-03-17T23:40:27.649Z,100
2023-03-17T23:46:38.338Z,100
2023-03-17T23:51:34.834Z,100
2023-03-17T23:56:31.377Z,100
